Accueil
METAR-TAF:

METAR-TAF

Aéroports :

Lecce, Italie

latitude: 40-14N, longitude: 018-09E, altitude: 48 m

Observation

Le bulletin a été fait il y a 31 minutes, à 19:55 UTC
Vent 6 kt de nord/nord-ouest
Température 11°C
Humidité 94%
Pression 1015 hPa
Visibilité 10 km ou plus
Nuages épars à une hauteur de 4000 ft

METAR: LIBN 311955Z 34006KT 9999 SCT040 11/10 Q1015 RMK OVC BKN070 VIS MIN 9999 WIND THR14 35007KT WIND THR32 35007KT BLU

Heure: 22:26 (20:26 UTC)

Prévision

Le bulletin a été fait il y a 3 heures et 26 minutes, à 17:00 UTC
Prévision valable du 31 à 18 UTC au 01 à 03 UTC
Vent 12 kt de nord/nord-ouest
Visibilité: 8000 m
Nuages fragmentés à une hauteur de 2500 ft
Temporairement
du 31 à 18 UTC au 31 à 19 UTC
Nuages épars à une hauteur de 3000 ft
Temporairement
du 31 à 22 UTC au 01 à 03 UTC
Visibilité: 5000 m
pluie

TAF: LIBN 311700Z 3118/0103 33012KT 8000 BKN025 TEMPO 3118/3119 SCT030 TEMPO 3122/0103 5000 RA

Observations et prévisions météorologiques de plus de 4000 aéroports (messages METAR et TAF).

Les stations disponibles sont représentées par des disques jaunes et rouges sur la carte.

Passer la souris dessus pour voir le nom de la station.

Cliquer dessus pour voir les observations et prévisions météorologiques.

Pour changer de carte: cliquez sur les boutons verts avec une croix noire pour zoomer, sur le bouton vert avec un tiret pour effectuer un zoom arrière, ou sur les flèches vertes pour les cartes adjacentes.


METAR-TAF: